createdAt,value
2022-08-26T00:01:52.057Z,14.27
2022-08-26T00:04:19.517Z,23.60
2022-08-26T00:06:47.262Z,10.13
2022-08-26T00:09:16.221Z,16.47
2022-08-26T00:11:44.690Z,22.50
2022-08-26T00:14:14.183Z,15.37
2022-08-26T00:16:47.929Z,23.43
2022-08-26T00:19:18.413Z,22.07
2022-08-26T00:21:48.840Z,11.13
2022-08-26T00:24:18.148Z,14.70
2022-08-26T00:26:45.459Z,11.27
2022-08-26T00:29:13.122Z,12.10
2022-08-26T00:31:40.778Z,10.53
2022-08-26T00:34:09.407Z,11.17
2022-08-26T00:36:36.760Z,10.70
2022-08-26T00:39:04.778Z,14.80
2022-08-26T00:41:34.314Z,16.97
2022-08-26T00:44:01.251Z,20.40
2022-08-26T00:46:36.066Z,16.83
2022-08-26T00:49:22.179Z,14.30
2022-08-26T00:51:58.016Z,27.50
2022-08-26T00:54:32.740Z,16.90
2022-08-26T00:57:08.556Z,19.57
2022-08-26T00:59:48.262Z,12.57
2022-08-26T01:02:20.229Z,13.90
2022-08-26T01:04:54.410Z,15.00
2022-08-26T01:07:25.664Z,15.70
2022-08-26T01:09:52.656Z,11.10
2022-08-26T01:12:22.231Z,10.20
2022-08-26T01:14:49.841Z,11.07
2022-08-26T01:17:17.080Z,11.37
2022-08-26T01:19:52.252Z,10.83
2022-08-26T01:22:52.371Z,9.87
2022-08-26T01:25:21.340Z,13.03
2022-08-26T01:27:49.217Z,12.43
2022-08-26T01:30:17.897Z,12.37
2022-08-26T01:32:46.082Z,29.53
2022-08-26T01:35:13.005Z,10.37
2022-08-26T01:37:41.103Z,17.83
2022-08-26T01:40:14.038Z,10.57
2022-08-26T01:42:44.431Z,15.70
2022-08-26T01:45:18.545Z,10.97
2022-08-26T01:47:49.093Z,20.87
2022-08-26T01:50:27.681Z,11.97
2022-08-26T01:52:57.679Z,19.17
2022-08-26T01:55:32.191Z,10.67
2022-08-26T01:58:00.790Z,10.00
2022-08-26T02:00:28.378Z,11.63
2022-08-26T02:03:16.217Z,10.50
2022-08-26T02:05:48.835Z,16.00
2022-08-26T02:08:24.609Z,14.17
2022-08-26T02:10:55.052Z,10.03
2022-08-26T02:13:23.250Z,13.17
2022-08-26T02:15:52.449Z,9.77
2022-08-26T02:18:20.082Z,12.10
2022-08-26T02:20:47.056Z,11.60
2022-08-26T02:23:18.643Z,15.73
2022-08-26T02:25:55.865Z,12.30
2022-08-26T02:28:22.988Z,10.17
2022-08-26T02:30:55.700Z,15.40
2022-08-26T02:33:22.898Z,20.97
2022-08-26T02:35:49.824Z,17.37
2022-08-26T02:38:17.775Z,12.40
2022-08-26T02:40:44.919Z,13.40
2022-08-26T02:43:12.674Z,10.60
2022-08-26T02:45:40.344Z,11.80
2022-08-26T02:48:13.701Z,27.17
2022-08-26T02:50:41.134Z,16.77
2022-08-26T02:53:09.897Z,14.57
2022-08-26T02:55:37.237Z,15.47
2022-08-26T02:58:05.230Z,16.03
2022-08-26T03:00:32.717Z,16.23
2022-08-26T03:02:59.995Z,11.97
2022-08-26T03:05:27.018Z,13.97
2022-08-26T03:07:54.014Z,16.00
2022-08-26T03:10:21.499Z,26.60
2022-08-26T03:12:48.649Z,13.53
2022-08-26T03:15:17.846Z,16.83
2022-08-26T03:17:47.146Z,17.00
2022-08-26T03:20:15.458Z,12.87
2022-08-26T03:22:43.130Z,16.80
2022-08-26T03:25:12.904Z,18.00
2022-08-26T03:27:41.693Z,14.90
2022-08-26T03:30:30.091Z,16.40
2022-08-26T03:32:57.330Z,16.77
2022-08-26T03:35:25.599Z,13.80
2022-08-26T03:37:53.822Z,18.70
2022-08-26T03:40:22.371Z,12.20
2022-08-26T03:42:51.187Z,12.90
2022-08-26T03:45:19.326Z,13.60
2022-08-26T03:47:47.564Z,15.90
2022-08-26T03:50:17.676Z,17.73
2022-08-26T03:52:56.035Z,13.83
2022-08-26T03:55:28.778Z,16.23
2022-08-26T03:57:55.872Z,17.67
2022-08-26T04:00:22.861Z,18.70
2022-08-26T04:02:53.374Z,15.23
2022-08-26T04:05:21.776Z,14.97
2022-08-26T04:07:49.836Z,19.10
2022-08-26T04:10:19.454Z,16.80
2022-08-26T04:12:47.787Z,16.47
2022-08-26T04:15:16.496Z,22.50
2022-08-26T04:17:45.209Z,18.03
2022-08-26T04:20:16.197Z,22.90
2022-08-26T04:22:43.534Z,15.77
2022-08-26T04:25:11.028Z,22.20
2022-08-26T04:27:38.336Z,18.63
2022-08-26T04:30:08.007Z,20.63
2022-08-26T04:32:35.849Z,22.03
2022-08-26T04:35:04.563Z,26.20
2022-08-26T04:37:31.666Z,24.30
2022-08-26T04:39:59.781Z,22.23
2022-08-26T04:42:27.148Z,18.73
2022-08-26T04:44:54.103Z,21.67
2022-08-26T04:47:22.553Z,25.60
2022-08-26T04:49:49.502Z,20.60
2022-08-26T04:52:17.423Z,25.07
2022-08-26T04:54:44.340Z,19.40
2022-08-26T04:57:11.296Z,20.30
2022-08-26T04:59:39.494Z,22.73
2022-08-26T05:02:06.972Z,19.10
2022-08-26T05:04:34.621Z,29.17
2022-08-26T05:07:03.061Z,27.03
2022-08-26T05:09:30.488Z,25.20
2022-08-26T05:11:57.574Z,31.63
2022-08-26T05:14:24.511Z,30.10
2022-08-26T05:16:51.682Z,28.70
2022-08-26T05:19:19.501Z,31.13
2022-08-26T05:21:48.428Z,27.43
2022-08-26T05:24:16.180Z,33.00
2022-08-26T05:26:44.942Z,31.10
2022-08-26T05:29:12.783Z,30.30
2022-08-26T05:31:40.120Z,38.37
2022-08-26T05:34:08.457Z,32.67
2022-08-26T05:36:36.117Z,37.30
2022-08-26T05:39:06.086Z,39.07
2022-08-26T05:41:38.611Z,41.30
2022-08-26T05:44:09.611Z,44.13
2022-08-26T05:46:37.308Z,45.07
2022-08-26T05:49:05.890Z,41.90
2022-08-26T05:51:33.699Z,39.70
2022-08-26T05:54:03.600Z,43.77
2022-08-26T05:56:30.802Z,46.17
2022-08-26T05:58:59.673Z,47.80
2022-08-26T06:01:29.662Z,54.00
2022-08-26T06:03:59.660Z,67.43
2022-08-26T06:06:31.711Z,53.23
2022-08-26T06:09:00.838Z,56.97
2022-08-26T06:11:30.666Z,54.80
2022-08-26T06:14:03.651Z,73.00
2022-08-26T06:16:34.732Z,66.53
2022-08-26T06:19:11.129Z,59.20
2022-08-26T06:21:40.167Z,68.33
2022-08-26T06:24:36.352Z,76.00
2022-08-26T06:27:06.156Z,80.33
2022-08-26T06:29:36.041Z,78.50
2022-08-26T06:32:04.770Z,79.77
2022-08-26T06:34:31.705Z,85.50
2022-08-26T06:37:01.942Z,78.63
2022-08-26T06:39:31.142Z,80.13
2022-08-26T06:42:00.043Z,80.27
2022-08-26T06:44:27.774Z,82.33
2022-08-26T06:46:55.265Z,88.77
2022-08-26T06:49:26.771Z,90.83
2022-08-26T06:51:55.452Z,86.03
2022-08-26T06:54:22.468Z,86.37
2022-08-26T06:56:49.802Z,90.13
2022-08-26T06:59:16.707Z,87.40
2022-08-26T07:01:45.355Z,84.47
2022-08-26T07:04:15.669Z,87.07
2022-08-26T07:06:48.913Z,85.80
2022-08-26T07:09:16.938Z,87.13
2022-08-26T07:11:44.686Z,90.27
2022-08-26T07:14:12.864Z,101.17
2022-08-26T07:16:41.257Z,82.67
2022-08-26T07:19:10.796Z,80.00
2022-08-26T07:21:40.370Z,90.90
2022-08-26T07:24:08.699Z,85.83
2022-08-26T07:26:38.688Z,82.83
2022-08-26T07:29:06.918Z,79.17
2022-08-26T07:31:42.222Z,103.00
2022-08-26T07:34:13.691Z,80.10
2022-08-26T07:36:43.787Z,87.63
2022-08-26T07:39:10.818Z,85.47
2022-08-26T07:41:37.730Z,81.57
2022-08-26T07:44:05.316Z,82.30
2022-08-26T07:46:32.643Z,78.23
2022-08-26T07:48:59.601Z,80.87
2022-08-26T07:51:28.032Z,79.50
2022-08-26T07:53:55.595Z,80.97
2022-08-26T07:56:23.560Z,82.20
2022-08-26T07:58:54.093Z,76.80
2022-08-26T08:01:23.995Z,72.70
2022-08-26T08:03:52.400Z,71.00
2022-08-26T08:06:27.338Z,68.73
2022-08-26T08:08:55.901Z,65.27
2022-08-26T08:11:23.709Z,70.47
2022-08-26T08:13:56.127Z,71.40
2022-08-26T08:16:25.186Z,69.23
2022-08-26T08:18:53.575Z,70.53
2022-08-26T08:21:21.465Z,68.40
2022-08-26T08:23:51.859Z,61.67
2022-08-26T08:26:20.010Z,72.90
2022-08-26T08:28:47.788Z,67.73
2022-08-26T08:31:56.777Z,70.90
2022-08-26T08:34:19.255Z,61.27
2022-08-26T08:36:48.796Z,58.93
2022-08-26T08:39:17.330Z,72.80
2022-08-26T08:42:25.400Z,56.60
2022-08-26T08:44:55.596Z,61.43
2022-08-26T08:47:37.755Z,55.33
2022-08-26T08:50:42.944Z,64.90
2022-08-26T08:53:28.807Z,54.97
2022-08-26T08:56:31.050Z,63.80
2022-08-26T08:59:09.000Z,61.73
2022-08-26T09:02:04.821Z,72.37
2022-08-26T09:08:28.452Z,50.93
2022-08-26T09:11:00.974Z,57.60
2022-08-26T09:13:31.924Z,62.67
2022-08-26T09:16:20.487Z,49.50
2022-08-26T09:19:26.584Z,49.53
2022-08-26T09:22:02.272Z,58.23
2022-08-26T09:24:41.626Z,50.60
2022-08-26T09:27:09.021Z,54.90
2022-08-26T09:29:45.652Z,48.33
2022-08-26T09:32:24.150Z,53.53
2022-08-26T09:35:07.618Z,50.83
2022-08-26T09:40:29.386Z,45.30
2022-08-26T09:43:10.060Z,57.80
2022-08-26T09:45:38.793Z,46.80
2022-08-26T09:48:07.932Z,45.00
2022-08-26T09:50:52.314Z,40.17
2022-08-26T09:53:25.193Z,45.43
2022-08-26T09:56:16.619Z,48.83
2022-08-26T09:58:47.291Z,42.10
2022-08-26T10:01:38.009Z,44.73
2022-08-26T10:04:26.697Z,39.63
2022-08-26T10:07:05.978Z,38.40
2022-08-26T10:09:39.060Z,41.83
2022-08-26T10:12:14.816Z,41.97
2022-08-26T10:14:48.607Z,41.10
2022-08-26T10:17:29.148Z,44.00
2022-08-26T10:20:09.841Z,38.93
2022-08-26T10:23:01.099Z,37.80
2022-08-26T10:25:43.917Z,36.27
2022-08-26T10:28:40.319Z,30.00
2022-08-26T10:31:48.546Z,36.27
2022-08-26T10:34:19.216Z,39.73
2022-08-26T10:37:16.213Z,41.67
2022-08-26T10:40:28.353Z,32.23
2022-08-26T10:43:26.632Z,27.67
2022-08-26T10:46:03.758Z,35.73
2022-08-26T10:49:03.304Z,33.83
2022-08-26T10:51:42.087Z,35.90
2022-08-26T10:54:23.751Z,34.27
2022-08-26T10:56:59.965Z,33.27
2022-08-26T11:00:34.882Z,42.87
2022-08-26T11:03:43.969Z,32.67
2022-08-26T11:06:24.203Z,32.10
2022-08-26T11:08:59.578Z,36.80
2022-08-26T11:11:47.231Z,32.97
2022-08-26T11:14:58.500Z,35.50
2022-08-26T11:18:09.279Z,34.70
2022-08-26T11:20:47.183Z,30.00
2022-08-26T11:23:43.477Z,30.43
2022-08-26T11:26:36.055Z,31.93
2022-08-26T11:29:13.093Z,30.00
2022-08-26T11:31:53.701Z,29.70
2022-08-26T11:34:51.931Z,31.20
2022-08-26T11:39:54.963Z,42.97
2022-08-26T11:42:44.112Z,33.17
2022-08-26T11:45:28.438Z,33.70
2022-08-26T11:47:56.462Z,35.50
2022-08-26T11:50:28.543Z,33.57
2022-08-26T11:53:07.717Z,44.10
2022-08-26T11:55:41.838Z,31.93
2022-08-26T11:58:12.961Z,28.97
2022-08-26T12:01:01.909Z,29.73
2022-08-26T12:03:45.715Z,29.07
2022-08-26T12:06:20.776Z,39.13
2022-08-26T12:08:48.351Z,31.37
2022-08-26T12:11:27.976Z,30.37
2022-08-26T12:13:57.729Z,32.87
2022-08-26T12:16:30.386Z,34.87
2022-08-26T12:18:57.663Z,34.10
2022-08-26T12:21:34.558Z,34.60
2022-08-26T12:24:04.055Z,29.80
2022-08-26T12:26:34.737Z,38.27
2022-08-26T12:29:26.437Z,33.43
2022-08-26T12:32:13.603Z,28.73
2022-08-26T12:34:45.312Z,25.77
2022-08-26T12:37:14.226Z,26.33
2022-08-26T12:39:44.673Z,27.57
2022-08-26T12:42:42.155Z,31.07
2022-08-26T12:45:09.817Z,30.07
2022-08-26T12:47:44.099Z,26.73
2022-08-26T12:50:31.474Z,30.77
2022-08-26T12:53:21.378Z,35.37
2022-08-26T12:56:07.692Z,29.17
2022-08-26T12:58:39.082Z,22.00
2022-08-26T13:01:26.188Z,27.07
2022-08-26T13:03:53.284Z,26.83
2022-08-26T13:06:32.622Z,25.70
2022-08-26T13:09:24.771Z,29.93
2022-08-26T13:12:02.186Z,25.40
2022-08-26T13:14:29.307Z,20.73
2022-08-26T13:16:56.242Z,22.33
2022-08-26T13:19:25.773Z,26.57
2022-08-26T13:21:58.784Z,23.00
2022-08-26T13:24:38.322Z,26.23
2022-08-26T13:27:06.793Z,25.00
2022-08-26T13:29:33.751Z,22.60
2022-08-26T13:32:01.541Z,19.63
2022-08-26T13:34:29.920Z,26.77
2022-08-26T13:36:57.810Z,26.67
2022-08-26T13:39:25.431Z,18.40
2022-08-26T13:41:53.366Z,20.27
2022-08-26T13:44:20.524Z,26.57
2022-08-26T13:46:47.793Z,24.13
2022-08-26T13:49:14.781Z,15.77
2022-08-26T13:51:42.060Z,17.63
2022-08-26T13:54:08.954Z,16.87
2022-08-26T13:56:37.569Z,18.90
2022-08-26T13:59:05.785Z,16.07
2022-08-26T14:01:35.100Z,19.67
2022-08-26T14:04:03.216Z,17.00
2022-08-26T14:06:30.750Z,14.80
2022-08-26T14:08:58.673Z,11.33
2022-08-26T14:11:25.702Z,11.40
2022-08-26T14:13:52.813Z,11.40
2022-08-26T14:16:58.840Z,17.47
2022-08-26T14:19:26.179Z,19.53
2022-08-26T14:21:53.246Z,19.47
2022-08-26T14:24:20.199Z,11.87
2022-08-26T14:26:48.529Z,10.17
2022-08-26T14:29:16.870Z,8.10
2022-08-26T14:31:44.285Z,7.83
2022-08-26T14:34:14.320Z,10.00
2022-08-26T14:36:41.293Z,13.07
2022-08-26T14:39:10.687Z,17.23
2022-08-26T14:41:53.975Z,13.93
2022-08-26T14:44:27.806Z,7.67
2022-08-26T14:46:55.783Z,10.60
2022-08-26T14:49:24.350Z,9.73
2022-08-26T14:51:51.281Z,15.30
2022-08-26T14:54:19.801Z,11.73
2022-08-26T14:56:54.069Z,11.50
2022-08-26T14:59:26.794Z,19.43
2022-08-26T15:01:54.897Z,10.67
2022-08-26T15:04:23.060Z,14.60
2022-08-26T15:06:50.799Z,9.23
2022-08-26T15:09:17.867Z,12.07
2022-08-26T15:11:47.630Z,17.43
2022-08-26T15:14:19.321Z,12.13
2022-08-26T15:16:48.624Z,12.13
2022-08-26T15:19:16.463Z,6.30
2022-08-26T15:21:45.399Z,16.03
2022-08-26T15:24:13.182Z,7.20
2022-08-26T15:26:40.415Z,8.93
2022-08-26T15:29:07.429Z,9.10
2022-08-26T15:31:35.045Z,12.33
2022-08-26T15:34:06.053Z,8.13
2022-08-26T15:36:34.650Z,9.47
2022-08-26T15:39:01.892Z,11.67
2022-08-26T15:41:29.719Z,6.70
2022-08-26T15:43:57.407Z,11.03
2022-08-26T15:46:24.597Z,13.00
2022-08-26T15:48:52.380Z,6.07
2022-08-26T15:51:28.358Z,20.23
2022-08-26T15:53:59.041Z,13.20
2022-08-26T15:56:28.210Z,10.50
2022-08-26T15:58:56.434Z,6.20
2022-08-26T16:01:27.520Z,8.80
2022-08-26T16:03:55.607Z,6.87
2022-08-26T16:06:28.706Z,9.43
2022-08-26T16:08:56.394Z,16.73
2022-08-26T16:11:24.412Z,6.90
2022-08-26T16:13:51.472Z,14.00
2022-08-26T16:16:19.171Z,14.47
2022-08-26T16:18:46.121Z,15.67
2022-08-26T16:21:19.416Z,7.50
2022-08-26T16:23:46.775Z,5.57
2022-08-26T16:26:17.552Z,10.43
2022-08-26T16:28:45.064Z,9.27
2022-08-26T16:31:12.482Z,9.33
2022-08-26T16:33:40.699Z,7.97
2022-08-26T16:36:08.615Z,6.73
2022-08-26T16:38:36.489Z,10.97
2022-08-26T16:41:04.439Z,12.63
2022-08-26T16:43:32.632Z,16.77
2022-08-26T16:45:59.632Z,12.73
2022-08-26T16:48:27.529Z,7.40
2022-08-26T16:50:55.696Z,8.60
2022-08-26T16:53:23.199Z,8.63
2022-08-26T16:55:50.733Z,7.27
2022-08-26T16:58:18.055Z,8.53
2022-08-26T17:00:45.380Z,17.40
2022-08-26T17:03:13.065Z,17.33
2022-08-26T17:05:40.577Z,6.37
2022-08-26T17:08:07.942Z,10.60
2022-08-26T17:10:35.328Z,11.13
2022-08-26T17:13:02.655Z,13.37
2022-08-26T17:15:29.765Z,7.93
2022-08-26T17:17:57.398Z,7.60
2022-08-26T17:20:27.522Z,5.90
2022-08-26T17:22:56.075Z,8.33
2022-08-26T17:25:26.684Z,8.70
2022-08-26T17:27:54.144Z,10.77
2022-08-26T17:30:21.911Z,8.97
2022-08-26T17:32:49.686Z,5.13
2022-08-26T17:35:17.190Z,9.27
2022-08-26T17:37:44.507Z,7.10
2022-08-26T17:40:15.573Z,7.83
2022-08-26T17:42:42.749Z,15.97
2022-08-26T17:45:11.136Z,18.27
2022-08-26T17:47:39.132Z,7.07
2022-08-26T17:50:09.376Z,26.57
2022-08-26T17:52:37.542Z,7.50
2022-08-26T17:55:10.389Z,17.33
2022-08-26T17:57:40.892Z,11.97
2022-08-26T18:00:14.483Z,14.97
2022-08-26T18:02:42.642Z,10.50
2022-08-26T18:05:11.811Z,13.47
2022-08-26T18:07:43.785Z,16.13
2022-08-26T18:10:13.839Z,8.97
2022-08-26T18:12:41.698Z,8.13
2022-08-26T18:15:10.538Z,9.30
2022-08-26T18:17:39.379Z,3.60
2022-08-26T18:20:09.597Z,14.77
2022-08-26T18:22:36.609Z,10.50
2022-08-26T18:25:05.428Z,10.30
2022-08-26T18:27:32.602Z,10.87
2022-08-26T18:30:00.089Z,8.83
2022-08-26T18:32:27.247Z,12.50
2022-08-26T18:34:57.332Z,14.17
2022-08-26T18:37:25.770Z,4.20
2022-08-26T18:39:55.017Z,10.20
2022-08-26T18:42:23.653Z,7.03
2022-08-26T18:44:51.186Z,8.97
2022-08-26T18:47:18.332Z,8.00
2022-08-26T18:49:46.513Z,7.87
2022-08-26T18:52:15.927Z,11.00
2022-08-26T18:54:46.128Z,5.50
2022-08-26T18:57:13.117Z,8.40
2022-08-26T18:59:41.036Z,4.87
2022-08-26T19:02:09.647Z,8.60
2022-08-26T19:04:38.577Z,12.17
2022-08-26T19:07:06.598Z,8.93
2022-08-26T19:09:33.756Z,9.37
2022-08-26T19:12:01.741Z,11.50
2022-08-26T19:14:29.403Z,4.23
2022-08-26T19:16:56.466Z,7.80
2022-08-26T19:19:26.439Z,5.63
2022-08-26T19:21:53.625Z,8.10
2022-08-26T19:24:21.378Z,5.87
2022-08-26T19:26:51.462Z,5.30
2022-08-26T19:29:29.418Z,8.33
2022-08-26T19:31:56.676Z,8.20
2022-08-26T19:34:24.187Z,6.37
2022-08-26T19:36:53.242Z,7.73
2022-08-26T19:39:21.211Z,4.33
2022-08-26T19:41:48.517Z,12.07
2022-08-26T19:44:39.183Z,8.70
2022-08-26T19:47:08.826Z,11.23
2022-08-26T19:49:35.914Z,7.30
2022-08-26T19:52:03.226Z,5.37
2022-08-26T19:54:30.608Z,5.73
2022-08-26T19:56:57.638Z,9.63
2022-08-26T19:59:24.764Z,7.17
2022-08-26T20:02:00.665Z,13.17
2022-08-26T20:04:32.362Z,6.37
2022-08-26T20:07:01.835Z,7.10
2022-08-26T20:09:29.780Z,7.40
2022-08-26T20:11:57.084Z,11.20
2022-08-26T20:14:25.129Z,9.80
2022-08-26T20:16:52.363Z,10.77
2022-08-26T20:19:37.962Z,7.33
2022-08-26T20:22:05.902Z,11.97
2022-08-26T20:24:34.226Z,12.07
2022-08-26T20:27:06.784Z,7.93
2022-08-26T20:29:35.516Z,6.40
2022-08-26T20:32:02.928Z,25.50
2022-08-26T20:34:30.193Z,13.87
2022-08-26T20:36:57.270Z,7.03
2022-08-26T20:39:24.251Z,7.53
2022-08-26T20:41:51.301Z,4.63
2022-08-26T20:44:18.347Z,9.53
2022-08-26T20:46:45.703Z,11.43
2022-08-26T20:49:13.401Z,8.13
2022-08-26T20:51:43.153Z,11.50
2022-08-26T20:54:12.048Z,6.87
2022-08-26T20:56:40.034Z,7.30
2022-08-26T20:59:08.083Z,7.50
2022-08-26T21:01:37.848Z,5.07
2022-08-26T21:04:13.900Z,14.00
2022-08-26T21:06:42.325Z,6.63
2022-08-26T21:09:19.509Z,11.80
2022-08-26T21:11:46.718Z,9.47
2022-08-26T21:14:16.130Z,26.80
2022-08-26T21:16:45.714Z,11.70
2022-08-26T21:19:15.290Z,11.87
2022-08-26T21:21:42.276Z,7.83
2022-08-26T21:24:09.685Z,5.53
2022-08-26T21:26:37.140Z,7.70
2022-08-26T21:29:06.749Z,7.73
2022-08-26T21:31:35.155Z,7.50
2022-08-26T21:34:02.067Z,18.57
2022-08-26T21:36:29.287Z,10.13
2022-08-26T21:39:00.491Z,5.93
2022-08-26T21:41:28.563Z,10.20
2022-08-26T21:43:59.316Z,15.90
2022-08-26T21:46:29.100Z,10.70
2022-08-26T21:49:02.039Z,11.53
2022-08-26T21:51:32.577Z,9.00
2022-08-26T21:54:00.911Z,15.47
2022-08-26T21:56:31.621Z,9.03
2022-08-26T21:59:00.276Z,14.97
2022-08-26T22:01:31.924Z,6.13
2022-08-26T22:03:59.323Z,14.97
2022-08-26T22:06:27.872Z,6.10
2022-08-26T22:08:55.895Z,9.13
2022-08-26T22:11:25.387Z,12.10
2022-08-26T22:13:52.480Z,6.83
2022-08-26T22:16:19.897Z,11.13
2022-08-26T22:18:46.952Z,9.67
2022-08-26T22:21:16.947Z,10.40
2022-08-26T22:23:44.511Z,10.40
2022-08-26T22:26:13.598Z,14.33
2022-08-26T22:28:40.586Z,14.07
2022-08-26T22:31:11.355Z,10.57
2022-08-26T22:33:40.508Z,5.20
2022-08-26T22:36:07.758Z,8.70
2022-08-26T22:38:34.732Z,8.70
2022-08-26T22:41:05.401Z,7.00
2022-08-26T22:43:34.826Z,10.93
2022-08-26T22:46:01.832Z,9.37
2022-08-26T22:48:28.809Z,6.50
2022-08-26T22:51:00.164Z,6.03
2022-08-26T22:53:27.808Z,5.67
2022-08-26T22:55:55.059Z,8.43
2022-08-26T22:58:30.410Z,7.67
2022-08-26T23:00:59.400Z,5.07
2022-08-26T23:03:27.092Z,9.97
2022-08-26T23:05:55.534Z,7.27
2022-08-26T23:08:23.170Z,8.60
2022-08-26T23:10:50.833Z,9.40
2022-08-26T23:13:18.370Z,11.10
2022-08-26T23:15:45.820Z,9.93
2022-08-26T23:18:14.928Z,10.17
2022-08-26T23:20:42.660Z,10.87
2022-08-26T23:23:09.673Z,8.60
2022-08-26T23:25:36.661Z,8.67
2022-08-26T23:28:04.020Z,8.27
2022-08-26T23:30:32.947Z,7.13
2022-08-26T23:33:00.003Z,5.97
2022-08-26T23:35:27.104Z,6.37
2022-08-26T23:37:54.488Z,8.33
2022-08-26T23:40:28.784Z,7.70
2022-08-26T23:42:57.531Z,9.00
2022-08-26T23:45:25.425Z,6.83
2022-08-26T23:47:52.517Z,9.37
2022-08-26T23:50:22.224Z,12.27
2022-08-26T23:53:08.748Z,7.83
2022-08-26T23:55:39.718Z,8.00
2022-08-26T23:58:06.922Z,9.40
